Terminal Aerodrome Forecast
Issued by NWS Sioux Falls, SD

Home | Current Version | Previous Version | Graphics & Text | Print | Product List | Glossary On
Versions: 1 2 3 4 5 6 7 8 9 10 11 12 13 14 15 16
000
FTUS43 KFSD 260520
TAFSUX
TAF
KSUX 260520Z 2606/2706 23004KT P6SM TSRA BKN090CB
     FM260700 21004KT P6SM VCTS BKN200CB
     FM260800 VRB03KT P6SM BKN200
     FM262000 09008KT P6SM BKN250
     FM270300 11006KT P6SM SHRA VCTS BKN090CB=

USA.gov is the U.S. government's official web portal to all federal, state and local government web resources and services.